createdAt,value
2018-11-03T00:02:19.678Z,7.70
2018-11-03T00:06:23.394Z,7.30
2018-11-03T00:10:27.161Z,7.10
2018-11-03T00:14:31.023Z,6.90
2018-11-03T00:18:34.697Z,6.80
2018-11-03T00:22:38.440Z,6.80
2018-11-03T00:26:42.199Z,6.70
2018-11-03T00:30:45.947Z,6.60
2018-11-03T00:34:49.716Z,6.50
2018-11-03T00:38:53.372Z,6.40
2018-11-03T00:42:57.129Z,6.30
2018-11-03T00:47:00.874Z,6.30
2018-11-03T00:51:04.718Z,6.20
2018-11-03T00:55:09.405Z,6.10
2018-11-03T00:59:13.125Z,6.10
2018-11-03T01:03:16.919Z,6.00
2018-11-03T01:07:20.680Z,5.90
2018-11-03T01:11:24.437Z,5.80
2018-11-03T01:15:28.188Z,5.80
2018-11-03T01:19:31.935Z,5.70
2018-11-03T01:23:35.702Z,5.70
2018-11-03T01:27:39.514Z,5.60
2018-11-03T01:31:43.270Z,5.60
2018-11-03T01:35:47.020Z,5.50
2018-11-03T01:39:50.734Z,5.50
2018-11-03T01:43:54.562Z,5.40
2018-11-03T01:47:58.351Z,5.40
2018-11-03T01:52:02.136Z,5.30
2018-11-03T01:56:06.213Z,5.30
2018-11-03T02:00:10.805Z,5.20
2018-11-03T02:04:14.520Z,5.20
2018-11-03T02:08:18.298Z,5.20
2018-11-03T02:12:22.057Z,5.20
2018-11-03T02:16:25.814Z,5.10
2018-11-03T02:20:29.476Z,5.10
2018-11-03T02:24:33.268Z,5.10
2018-11-03T02:28:37.006Z,5.10
2018-11-03T02:32:40.975Z,5.00
2018-11-03T02:36:44.711Z,5.00
2018-11-03T02:40:48.447Z,5.00
2018-11-03T02:44:52.213Z,4.90
2018-11-03T02:48:56.057Z,4.90
2018-11-03T02:52:59.784Z,4.80
2018-11-03T02:57:03.634Z,4.80
2018-11-03T03:01:07.321Z,4.80
2018-11-03T03:05:11.522Z,4.70
2018-11-03T03:09:15.253Z,4.70
2018-11-03T03:13:19.018Z,4.60
2018-11-03T03:17:22.780Z,4.70
2018-11-03T03:21:26.509Z,4.60
2018-11-03T03:25:30.254Z,4.60
2018-11-03T03:29:34.372Z,4.50
2018-11-03T03:33:38.099Z,4.50
2018-11-03T03:37:41.777Z,4.50
2018-11-03T03:41:45.485Z,4.40
2018-11-03T03:45:49.195Z,4.40
2018-11-03T03:49:52.937Z,4.40
2018-11-03T03:53:56.673Z,4.40
2018-11-03T03:58:00.701Z,4.30
2018-11-03T04:02:04.499Z,4.30
2018-11-03T04:06:08.177Z,4.30
2018-11-03T04:10:11.867Z,4.20
2018-11-03T04:14:15.581Z,4.20
2018-11-03T04:18:19.273Z,4.10
2018-11-03T04:22:22.996Z,4.10
2018-11-03T04:26:28.300Z,4.10
2018-11-03T04:30:32.014Z,4.10
2018-11-03T04:34:35.812Z,4.00
2018-11-03T04:38:39.526Z,4.00
2018-11-03T04:42:43.205Z,4.00
2018-11-03T04:46:46.886Z,4.00
2018-11-03T04:50:50.639Z,3.90
2018-11-03T04:54:54.399Z,3.90
2018-11-03T04:58:58.284Z,3.80
2018-11-03T05:03:02.104Z,3.80
2018-11-03T05:07:05.945Z,3.70
2018-11-03T05:11:09.690Z,3.70
2018-11-03T05:15:13.469Z,4.00
2018-11-03T05:19:17.210Z,4.30
2018-11-03T05:23:20.908Z,4.50
2018-11-03T05:27:24.611Z,4.60
2018-11-03T05:31:28.350Z,4.70
2018-11-03T05:35:32.105Z,4.70
2018-11-03T05:39:35.851Z,4.80
2018-11-03T05:43:39.673Z,4.90
2018-11-03T05:47:43.380Z,4.90
2018-11-03T05:51:47.211Z,4.90
2018-11-03T05:55:50.990Z,4.90
2018-11-03T05:59:54.748Z,4.90
2018-11-03T06:03:59.241Z,4.90
2018-11-03T06:08:02.957Z,4.90
2018-11-03T06:12:07.051Z,4.90
2018-11-03T06:16:10.743Z,4.90
2018-11-03T06:20:17.261Z,4.90
2018-11-03T06:24:20.968Z,4.90
2018-11-03T06:28:24.696Z,5.00
2018-11-03T06:32:28.501Z,5.00
2018-11-03T06:36:32.285Z,5.00
2018-11-03T06:40:36.062Z,5.00
2018-11-03T06:44:39.861Z,5.10
2018-11-03T06:48:44.023Z,5.10
2018-11-03T06:52:47.821Z,5.10
2018-11-03T06:56:51.584Z,5.10
2018-11-03T07:00:55.294Z,5.10
2018-11-03T07:04:59.069Z,5.10
2018-11-03T07:09:02.817Z,5.10
2018-11-03T07:13:07.356Z,5.20
2018-11-03T07:17:11.044Z,5.20
2018-11-03T07:21:14.786Z,5.30
2018-11-03T07:25:18.509Z,5.30
2018-11-03T07:29:22.244Z,5.30
2018-11-03T07:33:25.883Z,5.40
2018-11-03T07:37:29.600Z,5.40
2018-11-03T07:41:33.412Z,5.50
2018-11-03T07:45:37.040Z,5.60
2018-11-03T07:49:40.792Z,5.60
2018-11-03T07:53:44.489Z,5.70
2018-11-03T07:57:48.159Z,5.80
2018-11-03T08:01:52.113Z,5.90
2018-11-03T08:05:55.944Z,6.00
2018-11-03T08:09:59.625Z,5.70
2018-11-03T08:14:03.338Z,5.50
2018-11-03T08:18:07.114Z,5.50
2018-11-03T08:22:10.842Z,5.50
2018-11-03T08:26:14.538Z,5.50
2018-11-03T08:30:18.303Z,5.60
2018-11-03T08:34:22.001Z,5.60
2018-11-03T08:38:25.720Z,5.70
2018-11-03T08:42:29.437Z,5.70
2018-11-03T08:46:33.248Z,5.80
2018-11-03T08:50:37.049Z,5.90
2018-11-03T08:54:40.735Z,6.00
2018-11-03T08:58:44.441Z,6.00
2018-11-03T09:02:48.184Z,6.10
2018-11-03T09:06:52.011Z,6.20
2018-11-03T09:10:55.716Z,6.30
2018-11-03T09:14:59.370Z,6.40
2018-11-03T09:19:03.124Z,6.50
2018-11-03T09:23:08.238Z,6.60
2018-11-03T09:27:12.006Z,6.60
2018-11-03T09:31:15.812Z,6.70
2018-11-03T09:35:19.507Z,6.80
2018-11-03T09:39:23.354Z,6.80
2018-11-03T09:43:26.951Z,6.90
2018-11-03T09:47:30.907Z,7.00
2018-11-03T09:51:34.660Z,7.00
2018-11-03T09:55:38.340Z,7.10
2018-11-03T09:59:42.027Z,7.20
2018-11-03T10:03:45.752Z,7.30
2018-11-03T10:07:49.599Z,7.30
2018-11-03T10:11:53.335Z,7.40
2018-11-03T10:15:57.202Z,7.50
2018-11-03T10:20:00.907Z,7.60
2018-11-03T10:24:04.820Z,7.60
2018-11-03T10:28:08.561Z,7.70
2018-11-03T10:32:12.385Z,7.80
2018-11-03T10:36:16.075Z,7.90
2018-11-03T10:40:19.796Z,8.00
2018-11-03T10:44:23.552Z,8.00
2018-11-03T10:48:27.282Z,8.00
2018-11-03T10:52:31.008Z,8.00
2018-11-03T10:56:41.411Z,8.10
2018-11-03T11:00:50.452Z,8.10
2018-11-03T11:04:59.526Z,8.20
2018-11-03T11:09:08.614Z,8.20
2018-11-03T11:13:18.318Z,8.30
2018-11-03T11:17:22.027Z,8.30
2018-11-03T11:21:25.808Z,8.40
2018-11-03T11:25:29.638Z,8.50
2018-11-03T11:29:33.286Z,8.60
2018-11-03T11:33:37.016Z,8.60
2018-11-03T11:37:40.789Z,8.70
2018-11-03T11:41:44.456Z,8.70
2018-11-03T11:45:48.164Z,8.70
2018-11-03T11:49:51.900Z,8.80
2018-11-03T11:53:56.547Z,8.80
2018-11-03T11:58:00.308Z,8.80
2018-11-03T12:02:04.077Z,8.80
2018-11-03T12:06:07.837Z,8.90
2018-11-03T12:10:11.638Z,8.90
2018-11-03T12:14:15.325Z,8.90
2018-11-03T12:18:19.009Z,9.00
2018-11-03T12:22:22.659Z,9.10
2018-11-03T12:26:26.458Z,9.10
2018-11-03T12:30:30.154Z,9.10
2018-11-03T12:34:33.948Z,9.20
2018-11-03T12:38:37.686Z,9.20
2018-11-03T12:42:41.410Z,9.20
2018-11-03T12:46:45.173Z,9.20
2018-11-03T12:50:48.876Z,9.20
2018-11-03T12:54:52.580Z,9.40
2018-11-03T12:58:56.336Z,9.40
2018-11-03T13:02:59.988Z,9.50
2018-11-03T13:07:03.685Z,9.70
2018-11-03T13:11:07.519Z,9.70
2018-11-03T13:15:12.462Z,9.80
2018-11-03T13:19:16.139Z,10.00
2018-11-03T13:23:19.840Z,10.30
2018-11-03T13:27:23.547Z,10.60
2018-11-03T13:31:27.245Z,10.90
2018-11-03T13:35:30.964Z,11.10
2018-11-03T13:39:34.713Z,11.30
2018-11-03T13:43:38.373Z,11.50
2018-11-03T13:47:42.118Z,11.60
2018-11-03T13:51:45.853Z,11.70
2018-11-03T13:55:49.560Z,11.90
2018-11-03T13:59:53.228Z,12.00
2018-11-03T14:03:57.145Z,12.10
2018-11-03T14:08:00.840Z,12.10
2018-11-03T14:12:04.587Z,12.20
2018-11-03T14:16:08.295Z,12.20
2018-11-03T14:20:13.154Z,12.20
2018-11-03T14:24:16.844Z,12.20
2018-11-03T14:28:20.564Z,12.20
2018-11-03T14:32:24.287Z,12.20
2018-11-03T14:36:28.071Z,12.20
2018-11-03T14:40:31.699Z,12.20
2018-11-03T14:44:35.437Z,12.20
2018-11-03T14:48:39.149Z,12.20
2018-11-03T14:52:43.759Z,12.20
2018-11-03T14:56:47.524Z,12.20
2018-11-03T15:00:51.149Z,12.20
2018-11-03T15:04:54.914Z,12.10
2018-11-03T15:08:58.663Z,12.10
2018-11-03T15:13:02.376Z,12.10
2018-11-03T15:17:06.365Z,12.00
2018-11-03T15:21:10.054Z,12.00
2018-11-03T15:25:13.875Z,11.90
2018-11-03T15:29:17.552Z,11.90
2018-11-03T15:33:21.343Z,11.80
2018-11-03T15:37:25.035Z,11.70
2018-11-03T15:41:28.795Z,11.60
2018-11-03T15:45:32.524Z,11.50
2018-11-03T15:49:36.296Z,11.40
2018-11-03T15:53:39.977Z,11.30
2018-11-03T15:57:43.868Z,11.30
2018-11-03T16:01:47.587Z,11.10
2018-11-03T16:05:51.283Z,11.10
2018-11-03T16:09:54.986Z,10.90
2018-11-03T16:13:58.678Z,10.80
2018-11-03T16:18:02.408Z,10.70
2018-11-03T16:22:06.214Z,10.60
2018-11-03T16:26:09.912Z,10.50
2018-11-03T16:30:15.303Z,10.40
2018-11-03T16:34:18.958Z,10.30
2018-11-03T16:38:22.995Z,10.20
2018-11-03T16:42:26.671Z,10.00
2018-11-03T16:46:30.361Z,10.00
2018-11-03T16:50:34.279Z,9.80
2018-11-03T16:54:37.967Z,9.70
2018-11-03T16:58:41.776Z,9.60
2018-11-03T17:02:45.508Z,9.50
2018-11-03T17:06:49.205Z,9.40
2018-11-03T17:10:52.823Z,9.30
2018-11-03T17:14:56.488Z,9.30
2018-11-03T17:19:00.159Z,9.10
2018-11-03T17:23:03.885Z,9.10
2018-11-03T17:27:08.457Z,9.00
2018-11-03T17:31:12.139Z,8.90
2018-11-03T17:35:15.781Z,8.70
2018-11-03T17:39:19.453Z,8.60
2018-11-03T17:43:23.118Z,8.60
2018-11-03T17:47:26.742Z,8.50
2018-11-03T17:51:30.455Z,8.30
2018-11-03T17:55:34.127Z,7.80
2018-11-03T17:59:37.803Z,7.90
2018-11-03T18:03:41.716Z,7.90
2018-11-03T18:07:45.393Z,7.90
2018-11-03T18:11:49.059Z,7.80
2018-11-03T18:15:52.731Z,7.70
2018-11-03T18:19:56.420Z,7.20
2018-11-03T18:24:00.115Z,7.00
2018-11-03T18:28:03.757Z,6.70
2018-11-03T18:32:08.851Z,6.60
2018-11-03T18:36:13.786Z,6.40
2018-11-03T18:40:17.444Z,6.30
2018-11-03T18:44:21.859Z,6.20
2018-11-03T18:48:25.775Z,6.10
2018-11-03T18:52:30.569Z,6.10
2018-11-03T18:56:34.248Z,5.90
2018-11-03T19:00:37.942Z,5.90
2018-11-03T19:04:41.560Z,5.80
2018-11-03T19:08:45.253Z,5.70
2018-11-03T19:12:48.966Z,5.70
2018-11-03T19:16:52.606Z,5.60
2018-11-03T19:20:56.488Z,5.60
2018-11-03T19:25:01.452Z,5.50
2018-11-03T19:29:05.289Z,5.40
2018-11-03T19:33:09.384Z,5.40
2018-11-03T19:37:13.652Z,5.30
2018-11-03T19:41:17.957Z,5.20
2018-11-03T19:45:21.701Z,5.20
2018-11-03T19:49:26.142Z,5.10
2018-11-03T19:53:30.444Z,5.10
2018-11-03T19:57:34.728Z,5.00
2018-11-03T20:01:38.395Z,4.10
2018-11-03T20:05:42.043Z,4.90
2018-11-03T20:09:45.766Z,4.80
2018-11-03T20:13:49.557Z,4.80
2018-11-03T20:17:53.240Z,4.80
2018-11-03T20:21:56.910Z,4.70
2018-11-03T20:26:00.598Z,4.70
2018-11-03T20:30:04.414Z,4.60
2018-11-03T20:34:08.105Z,4.60
2018-11-03T20:38:11.766Z,4.50
2018-11-03T20:42:15.428Z,4.50
2018-11-03T20:46:19.103Z,4.50
2018-11-03T20:50:22.778Z,4.50
2018-11-03T20:54:26.436Z,4.50
2018-11-03T20:58:30.107Z,4.40
2018-11-03T21:02:33.803Z,4.40
2018-11-03T21:06:37.607Z,4.40
2018-11-03T21:10:41.304Z,4.40
2018-11-03T21:14:44.968Z,4.40
2018-11-03T21:18:48.795Z,4.30
2018-11-03T21:22:52.587Z,4.30
2018-11-03T21:26:56.247Z,4.30
2018-11-03T21:30:59.997Z,4.30
2018-11-03T21:35:03.696Z,4.20
2018-11-03T21:39:09.080Z,4.20
2018-11-03T21:43:12.821Z,4.20
2018-11-03T21:47:16.671Z,4.20
2018-11-03T21:51:20.359Z,4.20
2018-11-03T21:55:24.124Z,4.10
2018-11-03T21:59:27.838Z,4.10
2018-11-03T22:03:31.516Z,4.10
2018-11-03T22:07:35.189Z,4.10
2018-11-03T22:11:38.935Z,4.00
2018-11-03T22:15:42.733Z,4.00
2018-11-03T22:19:46.410Z,4.40
2018-11-03T22:23:50.228Z,4.70
2018-11-03T22:27:54.030Z,4.80
2018-11-03T22:31:57.776Z,4.90
2018-11-03T22:36:01.517Z,5.00
2018-11-03T22:40:06.013Z,5.00
2018-11-03T22:44:09.901Z,5.10
2018-11-03T22:48:13.578Z,5.10
2018-11-03T22:52:17.308Z,5.10
2018-11-03T22:56:21.020Z,5.10
2018-11-03T23:00:24.764Z,5.10
2018-11-03T23:04:28.476Z,5.10
2018-11-03T23:08:32.268Z,5.10
2018-11-03T23:12:36.039Z,5.10
2018-11-03T23:16:39.790Z,5.10
2018-11-03T23:20:43.586Z,5.10
2018-11-03T23:24:47.286Z,5.10
2018-11-03T23:28:51.286Z,5.10
2018-11-03T23:32:55.013Z,5.10
2018-11-03T23:36:58.781Z,5.20
2018-11-03T23:41:02.498Z,5.10
2018-11-03T23:45:06.946Z,5.10
2018-11-03T23:49:10.735Z,5.10
2018-11-03T23:53:14.505Z,5.10
2018-11-03T23:57:18.251Z,5.10
